Time;durP1;ratioP1;P1;durP2;ratioP2;P2;SDS_P1;SDS_P2;PMS_P1;PMS_P2;Temp;Humidity;BMP_temperature;BMP_pressure;BME280_temperature;BME280_humidity;BME280_pressure;Samples;Min_cycle;Max_cycle;Signal;HPM_P1;HPM_P2
2022/06/07 00:00:53;;;;;;;4.78;4.38;;;17.10;99.90;;;17.87;84.23;97903.31;5221014;28;20209;-57
2022/06/07 00:03:26;;;;;;;4.93;4.53;;;17.10;99.90;;;17.86;82.86;97892.94;5226738;28;20186;-58
2022/06/07 00:06:00;;;;;;;5.28;4.72;;;17.00;99.90;;;17.80;83.49;97898.81;5220396;28;20214;-57
2022/06/07 00:08:33;;;;;;;5.03;4.63;;;17.00;99.90;;;17.85;83.64;97909.28;5216515;28;20252;-57
2022/06/07 00:11:06;;;;;;;4.70;4.38;;;17.10;99.90;;;17.88;83.98;97919.72;5221301;28;20229;-57
2022/06/07 00:13:41;;;;;;;4.65;4.15;;;17.10;99.90;;;17.89;84.15;97911.13;5217441;28;20267;-57
2022/06/07 00:16:17;;;;;;;4.53;4.28;;;17.10;99.90;;;17.85;84.20;97910.16;5220507;28;20251;-57
2022/06/07 00:18:50;;;;;;;5.15;4.75;;;17.10;99.90;;;17.83;85.30;97923.88;5219531;28;20255;-58
2022/06/07 00:21:24;;;;;;;5.20;4.80;;;17.00;99.90;;;17.75;87.58;97923.63;5223993;28;20224;-59
2022/06/07 00:23:57;;;;;;;5.78;5.38;;;17.00;99.90;;;17.75;89.77;97923.63;5221609;28;20205;-59
2022/06/07 00:26:32;;;;;;;5.78;5.30;;;17.00;99.90;;;17.66;91.22;97920.78;5222945;28;20202;-59
2022/06/07 00:29:07;;;;;;;5.00;4.70;;;16.90;99.90;;;17.59;91.48;97921.41;5222335;28;20216;-59
2022/06/07 00:31:41;;;;;;;6.20;5.60;;;16.90;99.90;;;17.53;93.38;97925.53;5217346;28;20235;-59
2022/06/07 00:34:15;;;;;;;6.15;5.70;;;16.90;99.90;;;17.46;93.89;97931.38;5215911;28;20673;-59
2022/06/07 00:36:48;;;;;;;5.82;5.40;;;16.80;99.90;;;17.42;95.80;97921.75;5215462;28;20229;-59
2022/06/07 00:39:21;;;;;;;5.82;5.43;;;16.80;99.90;;;17.41;97.42;97916.53;5222814;28;20220;-59
2022/06/07 00:41:54;;;;;;;5.40;5.10;;;16.80;99.90;;;17.37;96.35;97920.75;5218009;28;20251;-59
2022/06/07 00:44:36;;;;;;;5.75;5.03;;;16.70;99.90;;;17.31;96.45;97917.94;5223390;28;20236;-59
2022/06/07 00:47:13;;;;;;;5.53;5.13;;;16.70;99.90;;;17.32;96.33;97912.84;5218285;28;20298;-59
2022/06/07 00:49:52;;;;;;;5.75;5.35;;;16.70;99.90;;;17.29;96.95;97912.75;5223147;28;20657;-59
2022/06/07 00:52:31;;;;;;;6.40;5.78;;;16.60;99.90;;;17.24;96.21;97918.59;5220629;28;20194;-59
2022/06/07 00:55:07;;;;;;;6.15;5.60;;;16.60;99.90;;;17.20;98.16;97922.81;5214689;28;20661;-59
2022/06/07 00:57:40;;;;;;;5.90;5.57;;;16.60;99.90;;;17.14;96.32;97919.13;5223936;28;20287;-58
2022/06/07 01:00:18;;;;;;;5.97;5.47;;;16.50;99.90;;;17.06;95.12;97916.31;5219600;28;20306;-59
2022/06/07 01:02:52;;;;;;;5.57;5.18;;;16.40;99.90;;;17.09;95.97;97914.69;5219827;28;20250;-58
2022/06/07 01:05:25;;;;;;;5.30;5.00;;;16.50;99.90;;;17.10;96.14;97911.28;5219054;28;20232;-59
2022/06/07 01:10:51;;;;;;;5.63;5.30;;;16.50;99.90;;;17.09;95.56;97909.53;5216903;28;20724;-58
2022/06/07 01:13:31;;;;;;;5.65;5.25;;;16.40;99.90;;;17.11;95.49;97912.16;5221186;28;20623;-58
2022/06/07 01:16:09;;;;;;;5.47;5.00;;;16.40;99.90;;;17.11;95.83;97912.16;5221114;28;20262;-58
2022/06/07 01:18:42;;;;;;;5.60;5.15;;;16.40;99.90;;;17.03;94.57;97908.47;5214284;28;20685;-59
2022/06/07 01:21:21;;;;;;;6.10;5.57;;;16.30;99.90;;;16.99;95.42;97912.63;5218018;28;20284;-59
2022/06/07 01:23:54;;;;;;;6.13;5.65;;;16.30;99.90;;;16.94;95.45;97919.38;5220065;28;20209;-58
2022/06/07 01:26:27;;;;;;;6.43;5.88;;;16.20;99.90;;;17.01;95.69;97915.28;5220102;28;20202;-59
2022/06/07 01:29:00;;;;;;;5.70;5.30;;;16.30;99.90;;;16.99;95.36;97924.66;5216522;28;20253;-59
2022/06/07 01:31:34;;;;;;;6.25;5.75;;;16.30;99.90;;;16.96;95.46;97917.69;5216595;28;20580;-59
2022/06/07 01:34:07;;;;;;;5.82;5.35;;;16.30;99.90;;;16.98;95.90;97916.06;5217478;28;20249;-59
2022/06/07 01:36:42;;;;;;;4.78;4.38;;;16.30;99.90;;;16.97;95.33;97914.31;5217940;28;20205;-59
2022/06/07 01:42:06;;;;;;;4.22;3.97;;;16.30;99.90;;;16.99;95.01;97920.38;5215132;28;20653;-58
2022/06/07 01:44:43;;;;;;;3.88;3.50;;;16.40;99.90;;;17.00;94.20;97914.41;5220867;28;20230;-58
2022/06/07 01:47:19;;;;;;;4.10;3.78;;;16.40;99.90;;;16.95;91.77;97915.97;5218525;28;20266;-58
2022/06/07 01:49:52;;;;;;;3.40;3.20;;;16.30;99.90;;;16.99;92.58;97911.75;5219347;28;20189;-59
2022/06/07 01:52:30;;;;;;;3.83;3.63;;;16.30;99.90;;;16.98;91.48;97900.56;5216047;28;20202;-58
2022/06/07 01:55:04;;;;;;;3.58;3.28;;;16.40;99.90;;;16.93;90.26;97896.94;5218277;28;20254;-58
2022/06/07 01:57:37;;;;;;;3.13;2.92;;;16.30;99.90;;;16.92;91.15;97897.78;5216196;28;20629;-58
2022/06/07 02:00:11;;;;;;;3.47;3.28;;;16.30;99.90;;;16.94;92.16;97903.88;5220918;28;20221;-58
2022/06/07 02:02:46;;;;;;;4.03;3.70;;;16.30;99.90;;;16.94;91.77;97888.38;5220438;28;20675;-58
2022/06/07 02:05:19;;;;;;;3.22;3.03;;;16.30;99.90;;;16.96;91.17;97897.03;5218261;28;20257;-58
2022/06/07 02:07:54;;;;;;;3.70;3.50;;;16.20;99.90;;;16.98;91.58;97889.34;5219977;28;20684;-59
2022/06/07 02:10:27;;;;;;;3.60;3.38;;;16.30;99.90;;;16.95;91.48;97882.38;5219105;28;20661;-59
2022/06/07 02:13:00;;;;;;;3.60;3.35;;;16.30;99.90;;;16.91;91.86;97882.22;5215877;28;20201;-59
2022/06/07 02:15:33;;;;;;;3.67;3.47;;;16.30;99.90;;;16.91;92.45;97885.69;5214438;28;20221;-59
2022/06/07 02:18:07;;;;;;;3.80;3.50;;;16.20;99.90;;;16.91;92.28;97880.50;5217395;28;20545;-58
2022/06/07 02:20:41;;;;;;;3.60;3.30;;;16.20;99.90;;;16.94;91.46;97883.22;5217298;28;20233;-59
2022/06/07 02:23:15;;;;;;;4.00;3.60;;;16.20;99.90;;;16.91;93.07;97888.25;5218400;28;20309;-59
2022/06/07 02:25:57;;;;;;;4.00;3.70;;;16.20;99.90;;;16.83;91.77;97882.00;5213621;28;20220;-58
2022/06/07 02:28:37;;;;;;;3.63;3.33;;;16.10;99.90;;;16.78;92.52;97880.97;5216107;28;20278;-58
2022/06/07 02:31:11;;;;;;;3.45;3.25;;;16.10;99.90;;;16.77;93.05;97881.75;5218269;28;20243;-57
2022/06/07 02:33:45;;;;;;;3.72;3.38;;;16.10;99.90;;;16.74;92.36;97873.91;5215581;28;20197;-59
2022/06/07 02:36:19;;;;;;;3.40;3.00;;;16.10;99.90;;;16.74;92.07;97873.91;5219358;28;20217;-58
2022/06/07 02:38:54;;;;;;;3.88;3.42;;;16.00;99.90;;;16.75;91.57;97873.97;5213298;28;20247;-59
2022/06/07 02:41:29;;;;;;;3.30;3.00;;;16.00;99.90;;;16.70;91.43;97865.19;5216370;28;20589;-59
2022/06/07 02:44:02;;;;;;;3.75;3.53;;;16.00;99.90;;;16.71;92.65;97871.22;5216255;28;20737;-59
2022/06/07 02:46:40;;;;;;;3.40;3.20;;;16.00;99.90;;;16.75;92.14;97870.50;5221853;28;20255;-58
2022/06/07 02:49:13;;;;;;;3.20;3.00;;;16.00;99.90;;;16.75;92.50;97865.34;5218474;28;20241;-59
2022/06/07 02:51:46;;;;;;;3.78;3.25;;;16.00;99.90;;;16.71;92.69;97866.06;5217874;28;21669;-58
2022/06/07 02:54:35;;;;;;;2.97;2.78;;;16.00;99.90;;;16.69;92.55;97859.97;5219511;28;20691;-58
2022/06/07 02:57:08;;;;;;;3.60;3.40;;;16.00;99.90;;;16.69;93.26;97858.28;5217520;28;20220;-58
2022/06/07 02:59:41;;;;;;;3.22;2.92;;;16.00;99.90;;;16.68;93.09;97866.81;5219693;28;20270;-58
2022/06/07 03:02:14;;;;;;;3.70;3.50;;;15.90;99.90;;;16.65;92.58;97864.13;5216365;28;20243;-57
2022/06/07 03:04:47;;;;;;;3.78;3.47;;;15.90;99.90;;;16.60;92.68;97861.44;5218375;28;20664;-58
2022/06/07 03:07:20;;;;;;;4.18;3.88;;;15.80;99.90;;;16.61;93.08;97873.50;5218339;28;20340;-57
2022/06/07 03:09:55;;;;;;;3.40;3.10;;;15.80;99.90;;;16.58;92.79;97868.22;5221325;28;20599;-58
2022/06/07 03:12:28;;;;;;;3.97;3.63;;;15.80;99.90;;;16.56;92.63;97864.72;5212038;28;20275;-58
2022/06/07 03:15:01;;;;;;;3.38;3.08;;;15.80;99.90;;;16.57;93.10;97863.91;5216033;28;20225;-54
2022/06/07 03:17:34;;;;;;;3.38;3.17;;;15.80;99.90;;;16.57;91.84;97861.31;5218282;28;20728;-58
2022/06/07 03:20:10;;;;;;;3.47;3.28;;;15.80;99.90;;;16.57;92.40;97856.16;5215108;28;20201;-59
2022/06/07 03:22:43;;;;;;;3.67;3.40;;;15.80;99.90;;;16.59;92.61;97864.81;5214741;28;20196;-59
2022/06/07 03:25:18;;;;;;;3.55;3.25;;;15.80;99.90;;;16.59;92.35;97864.81;5217801;28;20221;-58
2022/06/07 03:27:52;;;;;;;3.10;2.90;;;15.80;99.90;;;16.56;92.08;97867.28;5224645;28;20221;-58
2022/06/07 03:30:25;;;;;;;3.78;3.47;;;15.80;99.90;;;16.58;92.48;97868.22;5220592;28;20303;-59
2022/06/07 03:32:58;;;;;;;3.17;2.97;;;15.80;99.90;;;16.60;91.90;97860.56;5219682;28;20692;-59
2022/06/07 03:35:31;;;;;;;3.40;3.20;;;15.80;99.90;;;16.55;90.74;97857.81;5221610;28;20317;-59
2022/06/07 03:38:05;;;;;;;3.15;2.95;;;15.80;99.90;;;16.55;91.05;97867.25;5222572;28;20250;-58
2022/06/07 03:40:46;;;;;;;3.45;3.25;;;15.80;99.90;;;16.60;90.88;97860.56;5221933;28;20232;-58
2022/06/07 03:43:19;;;;;;;3.47;3.20;;;15.80;99.90;;;16.61;90.58;97862.31;5219295;28;20201;-58
2022/06/07 03:45:53;;;;;;;3.88;3.58;;;15.80;99.90;;;16.59;90.81;97854.50;5221366;28;20252;-57
2022/06/07 03:48:26;;;;;;;3.50;3.30;;;15.80;99.90;;;16.56;91.92;97854.41;5223609;28;20740;-59
2022/06/07 03:50:59;;;;;;;3.70;3.40;;;15.80;99.90;;;16.61;91.66;97858.00;5226904;28;20220;-59
2022/06/07 03:53:32;;;;;;;3.20;3.00;;;15.80;99.90;;;16.60;91.55;97858.84;5223669;28;20338;-55
2022/06/07 03:56:14;;;;;;;3.10;3.00;;;15.80;99.90;;;16.62;90.87;97859.75;5222135;28;20224;-59
2022/06/07 03:58:47;;;;;;;3.05;2.85;;;15.80;99.90;;;16.56;90.10;97863.84;5226302;28;20217;-59
2022/06/07 04:01:23;;;;;;;3.42;3.13;;;15.70;99.90;;;16.54;91.06;97868.97;5220260;28;20210;-59
2022/06/07 04:04:02;;;;;;;3.47;3.28;;;15.70;99.90;;;16.45;90.36;97871.22;5221023;28;20194;-59
2022/06/07 04:06:39;;;;;;;3.60;3.35;;;15.60;99.90;;;16.43;91.91;97867.72;5224340;28;20275;-59
2022/06/07 04:09:12;;;;;;;3.70;3.40;;;15.70;99.90;;;16.44;91.90;97866.88;5218867;28;20201;-59
2022/06/07 04:11:47;;;;;;;3.70;3.40;;;15.70;99.90;;;16.39;92.81;97861.56;5223209;28;20190;-58
2022/06/07 04:14:20;;;;;;;3.85;3.60;;;15.70;99.90;;;16.37;91.88;97862.38;5223774;28;20205;-59
2022/06/07 04:16:53;;;;;;;3.72;3.53;;;15.60;99.90;;;16.37;91.34;97867.53;5225714;28;20696;-59
2022/06/07 04:19:26;;;;;;;3.45;3.15;;;15.60;99.90;;;16.43;92.52;97867.72;5227525;28;20201;-57
2022/06/07 04:21:59;;;;;;;3.63;3.42;;;15.70;99.90;;;16.52;92.09;97873.19;5221966;28;20247;-57
2022/06/07 04:24:33;;;;;;;4.13;3.83;;;15.70;99.90;;;16.58;92.54;97875.97;5227479;28;20256;-59
2022/06/07 04:27:07;;;;;;;3.95;3.60;;;15.80;99.90;;;16.67;92.49;97867.66;5224607;28;20217;-57
2022/06/07 04:29:41;;;;;;;3.70;3.50;;;15.90;99.90;;;16.75;92.26;97870.50;5222140;28;20665;-59
2022/06/07 04:32:16;;;;;;;3.63;3.35;;;16.00;99.90;;;16.77;92.24;97874.03;5218794;28;20742;-57
2022/06/07 04:34:49;;;;;;;3.58;3.30;;;16.10;99.90;;;16.88;91.37;97878.75;5223688;28;20836;-56
2022/06/07 04:37:23;;;;;;;3.40;3.20;;;16.10;99.90;;;16.97;89.61;97875.56;5222714;28;20234;-56
2022/06/07 04:39:56;;;;;;;3.67;3.30;;;16.10;99.90;;;16.99;89.43;97876.47;5224098;28;20625;-57
2022/06/07 04:42:30;;;;;;;3.15;2.92;;;16.20;99.90;;;17.05;87.89;97870.63;5225865;28;20251;-56
2022/06/07 04:45:06;;;;;;;4.35;3.13;;;16.30;99.90;;;17.14;87.43;97881.28;5225988;28;20230;-54
2022/06/07 04:47:39;;;;;;;3.17;2.80;;;16.30;99.90;;;17.21;86.57;97872.00;5220949;28;20610;-56
2022/06/07 04:50:17;;;;;;;3.53;3.20;;;16.40;99.90;;;17.23;85.71;97881.56;5224826;28;20233;-56
2022/06/07 04:52:50;;;;;;;3.40;3.10;;;16.40;99.90;;;17.23;85.77;97876.41;5218371;28;20198;-57
2022/06/07 04:55:23;;;;;;;3.70;2.80;;;16.40;99.90;;;17.25;86.05;97879.88;5224099;28;20210;-58
2022/06/07 04:57:58;;;;;;;3.00;2.80;;;16.40;99.90;;;17.27;85.84;97880.81;5222864;28;20256;-58
2022/06/07 05:00:31;;;;;;;2.85;2.65;;;16.40;99.90;;;17.33;85.17;97872.38;5225048;28;20228;-56
2022/06/07 05:03:04;;;;;;;2.95;2.72;;;16.40;99.90;;;17.30;85.94;97877.44;5221665;28;20216;-57
2022/06/07 05:05:37;;;;;;;2.90;2.70;;;16.40;99.90;;;17.34;85.36;97874.16;5219570;28;20225;-57
2022/06/07 05:08:10;;;;;;;2.70;2.50;;;16.50;99.90;;;17.36;85.11;97892.25;5214664;28;20267;-58
2022/06/07 05:10:43;;;;;;;2.67;2.47;;;16.50;99.90;;;17.37;84.75;97883.69;5216702;28;20661;-55
2022/06/07 05:13:18;;;;;;;3.00;2.80;;;16.50;99.90;;;17.32;84.80;97886.13;5221194;28;20225;-56
2022/06/07 05:15:55;;;;;;;2.58;2.40;;;16.50;99.90;;;17.40;83.85;97888.94;5219476;28;20233;-57
2022/06/07 05:18:28;;;;;;;2.55;2.45;;;16.50;99.90;;;17.42;84.39;97893.31;5221394;28;20228;-57
2022/06/07 05:21:05;;;;;;;3.42;2.90;;;16.60;99.90;;;17.42;84.09;97888.16;5219325;28;20584;-58
2022/06/07 05:23:38;;;;;;;2.95;2.75;;;16.60;99.90;;;17.49;83.75;97895.28;5220479;28;20201;-58
2022/06/07 05:26:17;;;;;;;2.90;2.70;;;16.60;99.90;;;17.49;83.75;97899.56;5218139;28;20734;-59
2022/06/07 05:28:51;;;;;;;2.90;2.75;;;16.60;99.90;;;17.48;84.80;97895.22;5217609;28;20244;-58
2022/06/07 05:31:25;;;;;;;3.05;2.80;;;16.60;99.90;;;17.57;83.28;97905.84;5219791;28;20213;-58
2022/06/07 05:33:58;;;;;;;2.92;2.67;;;16.70;99.90;;;17.65;82.80;97912.09;5218096;28;20212;-57
2022/06/07 05:36:31;;;;;;;2.95;2.75;;;16.70;99.90;;;17.67;81.91;97901.81;5220483;28;20251;-55
2022/06/07 05:39:05;;;;;;;3.03;2.78;;;16.80;99.90;;;17.72;81.69;97898.56;5216809;28;20252;-58
2022/06/07 05:41:38;;;;;;;3.47;3.10;;;16.80;99.90;;;17.81;82.83;97910.91;5222479;28;20225;-58
2022/06/07 05:44:13;;;;;;;2.75;2.53;;;16.90;99.90;;;18.02;81.63;97898.56;5225176;28;20239;-59
2022/06/07 05:46:48;;;;;;;3.40;2.45;;;17.10;99.90;;;18.15;82.13;97917.06;5214796;28;20193;-58
2022/06/07 05:49:21;;;;;;;2.95;2.70;;;17.30;99.90;;;18.22;81.32;97916.38;5221089;28;20691;-56
2022/06/07 05:51:54;;;;;;;3.10;2.80;;;17.40;99.90;;;18.32;80.55;97928.75;5221688;28;20251;-58
2022/06/07 05:54:29;;;;;;;2.60;2.50;;;17.30;99.90;;;18.39;78.88;97920.28;5225089;28;20251;-58
2022/06/07 05:57:03;;;;;;;3.00;2.22;;;17.30;99.90;;;18.35;78.96;97918.47;5216939;28;20345;-58
2022/06/07 05:59:39;;;;;;;2.50;2.40;;;17.30;99.90;;;18.42;79.15;97920.38;5218355;28;20197;-58
2022/06/07 06:02:12;;;;;;;2.78;2.58;;;17.40;99.90;;;18.57;78.32;97917.34;5211639;28;20201;-57
2022/06/07 06:04:46;;;;;;;3.22;2.40;;;17.50;99.90;;;18.66;77.53;97919.31;5215635;28;20201;-58
2022/06/07 06:07:19;;;;;;;2.85;2.65;;;17.60;99.90;;;19.04;77.53;97914.25;5222089;28;20304;-58
2022/06/07 06:12:42;;;;;;;2.65;2.45;;;18.60;99.90;;;20.30;70.58;97904.06;5215737;28;20201;-58
2022/06/07 06:15:17;;;;;;;4.85;2.50;;;19.10;99.90;;;20.66;69.08;97914.28;5220581;28;20292;-59
2022/06/07 06:17:50;;;;;;;3.35;2.20;;;19.30;99.90;;;20.65;68.33;97909.94;5219831;28;20252;-59
2022/06/07 06:20:24;;;;;;;3.40;2.45;;;19.30;99.90;;;20.83;68.25;97906.78;5210117;28;20226;-56
2022/06/07 06:22:57;;;;;;;2.92;2.10;;;19.30;99.90;;;21.07;67.41;97906.34;5223776;28;20633;-59
2022/06/07 06:25:30;;;;;;;2.28;2.15;;;19.60;99.90;;;21.13;66.55;97902.09;5222480;28;20233;-59
2022/06/07 06:28:04;;;;;;;2.38;2.17;;;19.70;99.90;;;21.12;65.25;97900.38;5223039;28;20693;-56
2022/06/07 06:30:38;;;;;;;3.17;1.88;;;19.70;99.90;;;20.92;66.09;97901.78;5216563;28;20281;-58
2022/06/07 06:33:13;;;;;;;2.10;2.00;;;19.50;99.90;;;20.77;65.83;97899.75;5221379;28;20629;-59
2022/06/07 06:35:51;;;;;;;2.13;2.00;;;19.30;99.90;;;20.67;66.23;97896.13;5216542;28;20611;-59
2022/06/07 06:38:24;;;;;;;2.33;1.95;;;19.20;99.90;;;20.50;66.87;97896.66;5215981;28;20271;-57
2022/06/07 06:40:59;;;;;;;2.38;2.20;;;19.00;99.90;;;20.40;67.19;97895.59;5212116;28;20197;-58
2022/06/07 06:43:32;;;;;;;2.30;2.13;;;19.00;99.90;;;20.31;67.89;97900.63;5212473;28;20232;-58
2022/06/07 06:46:08;;;;;;;2.30;2.10;;;18.90;99.90;;;20.33;68.04;97898.94;5215617;28;20213;-58
2022/06/07 06:48:43;;;;;;;2.10;1.90;;;18.90;99.90;;;20.35;68.27;97903.31;5224226;28;20240;-59
2022/06/07 06:51:19;;;;;;;2.15;2.05;;;19.00;99.90;;;20.60;66.93;97894.28;5213833;28;20196;-59
2022/06/07 06:53:52;;;;;;;2.10;1.90;;;19.30;99.90;;;21.17;65.49;97897.81;5214481;28;20205;-59
2022/06/07 06:56:28;;;;;;;2.00;1.90;;;19.90;99.90;;;21.42;63.43;97904.31;5212124;28;20232;-59
2022/06/07 06:59:01;;;;;;;2.17;1.90;;;20.00;99.90;;;21.41;62.85;97907.78;5222124;28;20265;-59
2022/06/07 07:01:38;;;;;;;2.30;2.10;;;19.90;99.90;;;21.21;63.37;97909.16;5223572;28;20285;-59
2022/06/07 07:04:16;;;;;;;3.80;2.25;;;19.70;99.90;;;21.00;63.69;97900.16;5224916;28;20192;-58
2022/06/07 07:06:49;;;;;;;4.40;2.00;;;19.50;99.90;;;20.93;63.61;97917.38;5217602;28;20200;-58
2022/06/07 07:09:24;;;;;;;2.15;2.00;;;19.50;99.90;;;20.99;64.16;97924.41;5218986;28;20605;-58
2022/06/07 07:12:04;;;;;;;2.22;2.00;;;19.60;99.90;;;21.18;63.76;97924.72;5225116;28;20247;-58
2022/06/07 07:14:37;;;;;;;3.00;2.20;;;19.80;99.90;;;21.24;64.25;97930.00;5225232;28;20246;-58
2022/06/07 07:17:12;;;;;;;2.30;2.10;;;19.90;99.90;;;21.54;63.68;97922.69;5222310;28;20287;-57
2022/06/07 07:19:45;;;;;;;2.30;2.20;;;20.20;99.90;;;21.79;62.10;97921.31;5212228;28;20619;-59
2022/06/07 07:22:18;;;;;;;2.20;2.00;;;20.40;99.90;;;22.03;61.00;97915.56;5220629;28;20241;-59
2022/06/07 07:24:51;;;;;;;2.00;1.80;;;20.70;99.90;;;22.64;59.04;97920.63;5225131;28;20239;-59
2022/06/07 07:27:25;;;;;;;2.65;1.90;;;21.20;99.90;;;22.73;56.67;97914.63;5225519;28;20756;-59
2022/06/07 07:29:59;;;;;;;2.35;1.90;;;21.20;99.90;;;22.79;57.40;97921.66;5224519;28;20197;-59
2022/06/07 07:32:33;;;;;;;2.15;1.80;;;21.30;99.90;;;22.77;56.77;97916.41;5221181;28;20239;-59
2022/06/07 07:35:07;;;;;;;1.90;1.67;;;21.30;99.90;;;22.84;56.16;97918.22;5223790;28;20246;-59
2022/06/07 07:37:41;;;;;;;2.10;1.63;;;21.40;99.90;;;22.74;54.80;97915.50;5218511;28;20316;-59
2022/06/07 07:40:14;;;;;;;1.63;1.52;;;21.30;99.90;;;22.76;54.97;97925.09;5221213;28;20217;-58
2022/06/07 07:42:47;;;;;;;1.92;1.77;;;21.20;99.90;;;22.90;53.32;97931.31;5225605;28;20197;-58
2022/06/07 07:45:21;;;;;;;2.15;1.70;;;21.30;99.90;;;22.85;54.23;97922.56;5223351;28;20202;-55
2022/06/07 07:47:55;;;;;;;2.47;1.90;;;21.30;99.90;;;23.15;53.72;97908.97;5221862;28;20259;-57
2022/06/07 07:50:28;;;;;;;2.10;1.65;;;21.50;99.90;;;23.60;53.27;97919.69;5224231;28;20219;-58
2022/06/07 07:53:01;;;;;;;2.17;1.38;;;22.10;99.90;;;24.18;51.29;97907.00;5219839;28;20224;-57
2022/06/07 07:55:34;;;;;;;2.15;1.65;;;22.70;98.80;;;24.57;49.34;97904.50;5224855;28;20266;-59
2022/06/07 07:58:08;;;;;;;1.90;1.80;;;23.10;97.50;;;24.40;47.77;97899.22;5224733;28;20680;-59
2022/06/07 08:00:43;;;;;;;1.67;1.58;;;22.80;96.50;;;24.57;48.29;97901.91;5223514;28;20283;-59
2022/06/07 08:03:20;;;;;;;2.25;1.65;;;22.70;96.80;;;24.34;49.48;97901.81;5225051;28;20205;-59
2022/06/07 08:06:12;;;;;;;2.40;1.63;;;22.60;97.00;;;24.22;48.44;97913.97;5217837;28;20207;-57
2022/06/07 08:08:47;;;;;;;1.70;1.60;;;22.50;97.00;;;24.00;49.53;97912.13;5208970;28;20255;-59
2022/06/07 08:11:23;;;;;;;1.98;1.50;;;22.30;97.40;;;23.63;51.05;97911.88;5228224;28;20228;-59
2022/06/07 08:13:56;;;;;;;2.72;1.65;;;22.10;98.20;;;23.66;51.13;97909.28;5225591;28;20231;-59
2022/06/07 08:16:31;;;;;;;1.88;1.77;;;22.20;98.30;;;24.26;49.55;97905.25;5227853;28;20225;-59
2022/06/07 08:19:13;;;;;;;1.40;1.30;;;22.70;97.10;;;24.77;46.97;97908.03;5228372;28;20262;-58
2022/06/07 08:21:46;;;;;;;1.60;1.50;;;23.20;95.10;;;25.10;47.29;97907.19;5224049;28;20288;-58
2022/06/07 08:24:20;;;;;;;2.80;1.77;;;23.60;95.50;;;25.47;45.52;97904.59;5226709;28;20204;-59
2022/06/07 08:26:54;;;;;;;1.83;1.52;;;24.00;94.30;;;25.92;44.84;97886.16;5223726;28;20197;-58
2022/06/07 08:29:27;;;;;;;1.50;1.40;;;24.20;94.10;;;26.27;43.41;97886.03;5225234;28;20997;-59
2022/06/07 08:32:00;;;;;;;3.15;1.70;;;24.70;92.90;;;25.94;44.13;97885.28;5225652;28;20738;-58
2022/06/07 08:37:38;;;;;;;1.48;1.38;;;24.20;93.10;;;25.59;43.92;97906.31;5159585;28;20270;-58
2022/06/07 08:40:19;;;;;;;2.30;1.42;;;23.90;93.00;;;25.65;44.67;97900.19;5215399;28;20205;-59
2022/06/07 08:42:58;;;;;;;1.85;1.40;;;24.00;93.50;;;25.87;43.30;97891.44;5224605;28;20542;-58
2022/06/07 08:45:35;;;;;;;3.03;1.67;;;24.20;92.50;;;25.99;43.11;97888.75;5223688;28;20200;-59
2022/06/07 08:48:13;;;;;;;1.45;1.35;;;24.50;92.20;;;26.11;43.57;97884.34;5228336;28;20224;-59
2022/06/07 08:50:56;;;;;;;2.17;1.60;;;24.80;92.30;;;26.30;42.11;97888.63;5218299;28;20196;-58
2022/06/07 08:53:35;;;;;;;1.88;1.70;;;25.00;91.00;;;26.46;41.51;97887.66;5228437;28;20236;-59
2022/06/07 08:56:16;;;;;;;1.98;1.40;;;25.00;90.70;;;26.58;41.65;97889.34;5219845;28;20256;-60
2022/06/07 08:58:52;;;;;;;2.63;1.75;;;25.10;90.60;;;26.59;40.52;97878.00;5222521;28;20255;-61
2022/06/07 09:01:43;;;;;;;1.83;1.45;;;25.30;89.40;;;26.73;41.15;97876.16;5221602;28;20201;-61
2022/06/07 09:04:22;;;;;;;1.60;1.50;;;25.50;90.00;;;26.36;39.78;97872.88;5228124;28;20201;-59
2022/06/07 09:07:03;;;;;;;2.13;1.50;;;25.10;87.80;;;26.25;40.73;97872.06;5223136;28;20192;-60
2022/06/07 09:12:31;;;;;;;3.45;1.75;;;25.00;91.10;;;26.16;41.25;97865.09;5222060;28;20197;-60
2022/06/07 09:15:10;;;;;;;1.35;1.20;;;25.10;89.20;;;26.38;40.48;97857.97;5215629;28;20193;-60
2022/06/07 09:17:47;;;;;;;2.22;1.40;;;25.20;87.80;;;26.34;41.29;97856.25;5219423;28;20263;-59
2022/06/07 09:20:23;;;;;;;1.90;1.40;;;25.10;89.60;;;26.09;41.57;97854.66;5226800;28;20232;-60
2022/06/07 09:23:03;;;;;;;1.30;1.20;;;24.70;90.00;;;26.21;41.05;97854.59;5226062;28;20223;-60
2022/06/07 09:25:42;;;;;;;1.55;1.45;;;24.80;88.70;;;26.18;39.46;97854.59;5224365;28;20240;-60
2022/06/07 09:28:23;;;;;;;3.38;1.20;;;24.90;86.60;;;26.21;39.22;97844.09;5223410;28;20208;-60
2022/06/07 09:31:03;;;;;;;1.40;1.13;;;25.10;85.70;;;26.42;39.89;97851.00;5221187;28;20196;-59
2022/06/07 09:33:50;;;;;;;1.30;1.20;;;25.30;86.10;;;26.48;39.30;97848.31;5222383;28;20214;-60
2022/06/07 09:36:33;;;;;;;1.95;1.30;;;25.20;85.30;;;26.33;39.83;97843.19;5226072;28;20200;-61
2022/06/07 09:39:17;;;;;;;1.63;1.25;;;24.90;86.80;;;26.05;40.20;97844.19;5226933;28;20224;-60
2022/06/07 09:41:57;;;;;;;1.67;1.23;;;24.50;86.80;;;25.80;40.72;97839.91;5224125;28;20201;-60
2022/06/07 09:44:35;;;;;;;3.22;1.60;;;24.20;88.80;;;25.47;41.76;97833.91;5220894;28;20196;-61
2022/06/07 09:47:15;;;;;;;2.00;1.45;;;24.00;90.00;;;25.16;43.25;97844.44;5218640;28;20260;-60
2022/06/07 09:49:51;;;;;;;2.55;1.50;;;23.80;90.50;;;25.31;42.32;97832.19;5221416;28;20224;-60
2022/06/07 09:52:27;;;;;;;1.60;1.45;;;24.00;90.10;;;24.98;44.04;97833.06;5221743;28;20200;-60
2022/06/07 09:55:08;;;;;;;2.75;1.60;;;23.60;91.30;;;24.92;44.40;97833.94;5226505;28;20192;-60
2022/06/07 09:57:44;;;;;;;1.85;1.60;;;23.50;91.40;;;24.96;44.67;97830.47;5221193;28;20640;-60
2022/06/07 10:00:22;;;;;;;1.70;1.60;;;23.70;91.50;;;25.26;43.62;97828.72;5226683;28;20297;-60
2022/06/07 10:03:20;;;;;;;2.75;1.73;;;24.10;90.50;;;25.09;43.46;97826.09;5223581;28;20189;-60
2022/06/07 10:06:10;;;;;;;1.70;1.50;;;24.10;90.10;;;25.24;43.62;97825.22;5214789;28;20198;-60
2022/06/07 10:09:15;;;;;;;1.80;1.70;;;24.00;90.60;;;25.13;42.93;97828.72;5214195;28;20221;-60
2022/06/07 10:12:03;;;;;;;1.50;1.40;;;23.60;90.30;;;24.88;43.58;97826.97;5215933;28;20428;-60
2022/06/07 10:14:50;;;;;;;1.75;1.60;;;23.40;91.30;;;24.82;43.47;97817.41;5214456;28;20295;-60
2022/06/07 10:17:55;;;;;;;1.80;1.70;;;23.20;90.90;;;24.93;42.28;97813.03;5216532;28;20316;-60
2022/06/07 10:20:42;;;;;;;1.70;1.60;;;23.60;89.80;;;25.19;43.66;97812.16;5223630;28;20715;-60
2022/06/07 10:23:39;;;;;;;1.38;1.23;;;24.00;90.80;;;25.14;42.34;97806.94;5226235;28;20235;-60
2022/06/07 10:26:28;;;;;;;1.83;1.63;;;23.90;89.20;;;25.00;42.59;97806.03;5222239;28;20196;-59
2022/06/07 10:29:19;;;;;;;3.55;1.38;;;23.80;90.20;;;24.86;42.70;97807.81;5226289;28;20698;-60
2022/06/07 10:31:59;;;;;;;1.30;1.30;;;23.60;89.30;;;24.83;43.05;97806.06;5220052;28;20229;-59
2022/06/07 10:34:38;;;;;;;1.17;1.17;;;23.50;90.50;;;24.62;43.15;97809.56;5222270;28;20197;-60
2022/06/07 10:37:33;;;;;;;2.03;1.48;;;23.40;90.20;;;24.46;43.28;97807.78;5225407;28;20252;-60
2022/06/07 10:40:16;;;;;;;1.75;1.42;;;23.20;90.70;;;24.38;43.83;97809.47;5215222;28;20205;-60
2022/06/07 10:42:55;;;;;;;1.38;1.27;;;23.10;90.50;;;24.32;44.28;97805.13;5211322;28;20639;-60
2022/06/07 10:45:36;;;;;;;2.00;1.23;;;23.10;91.40;;;24.22;44.79;97812.06;5224749;28;20204;-60
2022/06/07 10:48:16;;;;;;;1.50;1.40;;;22.90;91.30;;;24.24;44.35;97807.75;5225082;28;20256;-60
2022/06/07 10:50:54;;;;;;;1.10;1.10;;;22.90;91.10;;;24.12;45.49;97810.31;5214521;28;20197;-58
2022/06/07 10:53:35;;;;;;;1.98;1.70;;;22.90;91.50;;;24.16;45.81;97809.47;5225988;28;20227;-60
2022/06/07 10:56:17;;;;;;;1.65;1.55;;;22.80;91.70;;;24.10;46.12;97804.22;5218699;28;20239;-60
2022/06/07 10:58:53;;;;;;;1.83;1.60;;;22.80;92.20;;;24.14;46.17;97811.19;5218596;28;20224;-60
2022/06/07 11:01:37;;;;;;;2.00;1.63;;;22.80;92.10;;;24.14;46.50;97812.94;5223202;28;20235;-60
2022/06/07 11:10:15;;;;;;;1.80;1.70;;;22.20;93.00;;;23.32;47.62;97809.97;5212383;28;20283;-61
2022/06/07 11:13:00;;;;;;;1.67;1.58;;;22.10;93.60;;;23.30;48.02;97811.69;5215643;28;20239;-61
2022/06/07 11:15:39;;;;;;;2.72;1.85;;;22.10;93.30;;;23.41;47.90;97805.63;5215755;28;20236;-60
2022/06/07 11:18:20;;;;;;;1.88;1.58;;;22.30;92.90;;;23.74;45.34;97803.22;5216946;28;20231;-60